createdAt,value
2019-04-10T00:00:28.893Z,41.07
2019-04-10T00:05:23.613Z,40.40
2019-04-10T00:10:19.371Z,40.03
2019-04-10T00:15:16.104Z,40.57
2019-04-10T00:20:11.945Z,43.13
2019-04-10T00:25:08.484Z,41.13
2019-04-10T00:30:03.282Z,44.13
2019-04-10T00:34:58.216Z,43.40
2019-04-10T00:39:53.090Z,42.00
2019-04-10T00:44:48.025Z,41.03
2019-04-10T00:49:44.000Z,39.13
2019-04-10T00:54:39.249Z,41.00
2019-04-10T00:59:34.486Z,45.47
2019-04-10T01:04:29.115Z,43.23
2019-04-10T01:09:23.765Z,42.27
2019-04-10T01:14:18.446Z,41.73
2019-04-10T01:19:13.159Z,43.00
2019-04-10T01:24:08.860Z,39.87
2019-04-10T01:29:05.040Z,41.30
2019-04-10T01:34:00.973Z,39.40
2019-04-10T01:38:55.978Z,40.83
2019-04-10T01:43:51.112Z,42.03
2019-04-10T01:48:46.135Z,38.40
2019-04-10T01:53:41.902Z,42.40
2019-04-10T01:58:37.465Z,42.10
2019-04-10T02:03:32.154Z,39.70
2019-04-10T02:08:26.818Z,40.73
2019-04-10T02:13:21.503Z,40.00
2019-04-10T02:18:17.025Z,45.10
2019-04-10T02:23:12.212Z,39.77
2019-04-10T02:28:07.058Z,43.87
2019-04-10T02:33:02.306Z,44.03
2019-04-10T02:38:00.522Z,42.43
2019-04-10T02:42:54.672Z,43.87
2019-04-10T02:47:50.956Z,39.87
2019-04-10T02:52:46.578Z,42.67
2019-04-10T02:57:43.691Z,48.07
2019-04-10T03:02:41.031Z,45.87
2019-04-10T03:07:35.904Z,42.50
2019-04-10T03:12:32.168Z,46.40
2019-04-10T03:17:28.105Z,45.67
2019-04-10T03:22:23.009Z,44.37
2019-04-10T03:27:19.068Z,44.00
2019-04-10T03:32:35.421Z,42.90
2019-04-10T03:37:26.777Z,44.43
2019-04-10T03:42:21.406Z,43.33
2019-04-10T03:47:16.044Z,44.90
2019-04-10T03:52:11.457Z,46.23
2019-04-10T03:57:06.658Z,44.27
2019-04-10T04:02:01.384Z,46.23
2019-04-10T04:06:56.033Z,43.97
2019-04-10T04:11:50.662Z,46.87
2019-04-10T04:16:45.303Z,45.10
2019-04-10T04:21:40.000Z,46.50
2019-04-10T04:26:35.052Z,44.50
2019-04-10T04:31:29.723Z,44.63
2019-04-10T04:36:24.633Z,47.67
2019-04-10T04:41:19.629Z,49.50
2019-04-10T04:46:14.317Z,48.03
2019-04-10T04:51:09.064Z,53.17
2019-04-10T04:56:03.908Z,49.90
2019-04-10T05:00:58.637Z,51.77
2019-04-10T05:05:53.981Z,45.87
2019-04-10T05:10:49.695Z,44.23
2019-04-10T05:15:44.964Z,49.10
2019-04-10T05:20:46.721Z,48.10
2019-04-10T05:25:36.177Z,47.20
2019-04-10T05:30:31.401Z,50.50
2019-04-10T05:35:26.225Z,49.00
2019-04-10T05:40:20.837Z,51.13
2019-04-10T05:45:15.609Z,52.27
2019-04-10T05:50:16.114Z,47.40
2019-04-10T05:55:12.223Z,51.27
2019-04-10T06:00:14.832Z,47.90
2019-04-10T06:05:09.855Z,48.97
2019-04-10T06:10:09.924Z,49.57
2019-04-10T06:15:04.678Z,51.37
2019-04-10T06:19:59.328Z,50.90
2019-04-10T06:24:54.648Z,51.73
2019-04-10T06:29:49.418Z,50.87
2019-04-10T06:34:44.136Z,47.80
2019-04-10T06:39:38.832Z,49.70
2019-04-10T06:44:34.242Z,49.47
2019-04-10T06:49:29.206Z,44.97
2019-04-10T06:54:24.708Z,41.67
2019-04-10T06:59:19.432Z,45.53
2019-04-10T07:04:14.270Z,46.27
2019-04-10T07:09:11.739Z,45.93
2019-04-10T07:14:10.310Z,46.97
2019-04-10T07:19:06.012Z,45.67
2019-04-10T07:24:04.969Z,50.90
2019-04-10T07:28:58.913Z,44.27
2019-04-10T07:33:54.855Z,43.73
2019-04-10T07:38:53.880Z,44.33
2019-04-10T07:43:48.434Z,41.33
2019-04-10T07:48:46.480Z,43.90
2019-04-10T07:53:45.186Z,43.70
2019-04-10T07:58:41.859Z,48.33
2019-04-10T08:03:38.197Z,43.00
2019-04-10T08:08:36.177Z,41.20
2019-04-10T08:13:31.288Z,37.07
2019-04-10T08:18:27.560Z,40.80
2019-04-10T08:23:25.968Z,38.37
2019-04-10T08:28:22.019Z,37.33
2019-04-10T08:33:19.846Z,44.17
2019-04-10T08:38:15.250Z,41.03
2019-04-10T08:43:11.776Z,39.10
2019-04-10T08:48:07.934Z,38.13
2019-04-10T08:53:02.646Z,37.70
2019-04-10T08:57:58.550Z,39.90
2019-04-10T09:02:53.347Z,35.43
2019-04-10T09:07:48.550Z,43.80
2019-04-10T09:12:43.734Z,41.27
2019-04-10T09:17:39.677Z,41.70
2019-04-10T09:22:57.222Z,45.03
2019-04-10T09:27:32.435Z,46.27
2019-04-10T09:32:28.649Z,44.83
2019-04-10T09:37:24.342Z,43.73
2019-04-10T09:42:24.068Z,47.10
2019-04-10T09:47:18.764Z,41.30
2019-04-10T09:52:19.515Z,38.17
2019-04-10T09:57:15.403Z,36.70
2019-04-10T10:02:20.425Z,39.67
2019-04-10T10:07:20.711Z,49.80
2019-04-10T10:12:15.832Z,43.13
2019-04-10T10:17:10.735Z,46.90
2019-04-10T10:22:06.151Z,41.37
2019-04-10T10:27:02.202Z,43.40
2019-04-10T10:31:57.278Z,42.07
2019-04-10T10:36:53.231Z,41.17
2019-04-10T10:41:48.989Z,40.80
2019-04-10T10:46:44.025Z,38.73
2019-04-10T10:51:46.755Z,47.47
2019-04-10T10:56:42.615Z,46.43
2019-04-10T11:01:38.036Z,43.50
2019-04-10T11:06:33.154Z,43.77
2019-04-10T11:11:28.260Z,37.60
2019-04-10T11:16:23.327Z,44.40
2019-04-10T11:21:27.822Z,36.93
2019-04-10T11:26:24.227Z,37.20
2019-04-10T11:31:19.232Z,29.63
2019-04-10T11:36:15.125Z,30.67
2019-04-10T11:41:10.167Z,33.73
2019-04-10T11:46:05.334Z,37.73
2019-04-10T11:51:01.137Z,42.50
2019-04-10T11:56:05.667Z,42.27
2019-04-10T12:01:08.263Z,46.67
2019-04-10T12:05:59.831Z,43.60
2019-04-10T12:16:00.990Z,42.33
2019-04-10T12:21:01.914Z,45.33
2019-04-10T12:26:03.279Z,41.37
2019-04-10T12:31:05.684Z,42.47
2019-04-10T12:36:06.580Z,44.03
2019-04-10T12:41:08.880Z,43.20
2019-04-10T12:46:07.267Z,46.60
2019-04-10T12:51:07.691Z,49.07
2019-04-10T12:56:10.164Z,47.13
2019-04-10T13:01:10.590Z,46.93
2019-04-10T13:06:12.340Z,45.23
2019-04-10T13:11:12.028Z,47.17
2019-04-10T13:16:07.820Z,46.80
2019-04-10T13:21:02.520Z,47.90
2019-04-10T13:26:00.990Z,47.87
2019-04-10T13:30:55.548Z,50.50
2019-04-10T13:35:51.167Z,44.90
2019-04-10T13:40:46.012Z,48.87
2019-04-10T13:45:41.586Z,45.87
2019-04-10T13:50:36.953Z,46.43
2019-04-10T13:55:32.692Z,45.23
2019-04-10T14:00:33.619Z,46.63
2019-04-10T14:05:31.908Z,46.57
2019-04-10T14:10:25.083Z,49.30
2019-04-10T14:15:20.239Z,50.73
2019-04-10T14:20:20.193Z,52.10
2019-04-10T14:25:23.027Z,52.73
2019-04-10T14:30:20.969Z,52.70
2019-04-10T14:35:16.807Z,55.20
2019-04-10T14:40:12.285Z,54.07
2019-04-10T14:45:09.156Z,56.97
2019-04-10T14:50:05.266Z,54.53
2019-04-10T14:55:00.114Z,55.57
2019-04-10T14:59:55.959Z,57.10
2019-04-10T15:04:51.267Z,57.47
2019-04-10T15:09:46.467Z,56.03
2019-04-10T15:14:41.178Z,52.80
2019-04-10T15:19:36.406Z,55.27
2019-04-10T15:24:31.263Z,53.47
2019-04-10T15:29:26.030Z,55.57
2019-04-10T15:34:20.671Z,59.17
2019-04-10T15:39:15.451Z,57.87
2019-04-10T15:44:10.236Z,60.20
2019-04-10T15:49:09.129Z,62.97
2019-04-10T15:54:04.139Z,60.97
2019-04-10T15:58:59.697Z,62.27
2019-04-10T16:03:54.688Z,61.87
2019-04-10T16:08:50.360Z,63.83
2019-04-10T16:13:47.028Z,65.67
2019-04-10T16:18:42.495Z,68.40
2019-04-10T16:23:42.155Z,67.17
2019-04-10T16:28:37.579Z,65.97
2019-04-10T16:33:32.226Z,68.70
2019-04-10T16:38:27.036Z,65.77
2019-04-10T16:43:22.339Z,67.93
2019-04-10T16:48:18.822Z,65.93
2019-04-10T16:53:13.873Z,68.03
2019-04-10T16:58:09.598Z,70.97
2019-04-10T17:03:05.573Z,66.73
2019-04-10T17:08:00.357Z,69.87
2019-04-10T17:12:55.052Z,77.67
2019-04-10T17:17:50.610Z,78.40
2019-04-10T17:22:48.558Z,80.10
2019-04-10T17:27:41.963Z,83.27
2019-04-10T17:32:38.461Z,81.60
2019-04-10T17:37:33.881Z,83.53
2019-04-10T17:42:28.649Z,87.57
2019-04-10T17:47:23.488Z,84.73
2019-04-10T17:52:18.732Z,86.77
2019-04-10T17:57:14.619Z,85.40
2019-04-10T18:02:11.874Z,90.33
2019-04-10T18:07:06.689Z,91.70
2019-04-10T18:12:01.894Z,89.63
2019-04-10T18:16:56.610Z,93.97
2019-04-10T18:21:51.642Z,94.10
2019-04-10T18:26:46.275Z,92.73
2019-04-10T18:31:41.127Z,91.33
2019-04-10T18:36:36.327Z,91.80
2019-04-10T18:41:31.837Z,97.43
2019-04-10T18:46:27.055Z,102.37
2019-04-10T18:51:22.084Z,97.70
2019-04-10T18:56:16.800Z,94.23
2019-04-10T19:01:18.931Z,93.03
2019-04-10T19:06:21.039Z,102.07
2019-04-10T19:11:22.770Z,97.80
2019-04-10T19:16:13.139Z,96.90
2019-04-10T19:21:07.881Z,97.77
2019-04-10T19:26:03.132Z,98.90
2019-04-10T19:31:11.046Z,96.43
2019-04-10T19:35:59.453Z,102.27
2019-04-10T19:40:54.319Z,100.13
2019-04-10T19:45:50.031Z,102.43
2019-04-10T19:50:45.642Z,101.80
2019-04-10T19:55:40.304Z,97.70
2019-04-10T20:00:37.035Z,95.70
2019-04-10T20:05:31.681Z,91.53
2019-04-10T20:10:27.608Z,83.90
2019-04-10T20:15:22.694Z,82.17
2019-04-10T20:20:17.402Z,81.17
2019-04-10T20:25:12.466Z,80.23
2019-04-10T20:30:09.783Z,86.00
2019-04-10T20:35:06.091Z,78.73
2019-04-10T20:40:01.296Z,73.90
2019-04-10T20:44:56.743Z,67.63
2019-04-10T20:49:51.703Z,72.83
2019-04-10T20:54:46.866Z,70.33
2019-04-10T20:59:42.516Z,65.67
2019-04-10T21:04:37.474Z,71.63
2019-04-10T21:09:32.195Z,74.53
2019-04-10T21:14:27.570Z,66.50
2019-04-10T21:19:22.669Z,69.83
2019-04-10T21:24:17.283Z,67.03
2019-04-10T21:29:16.350Z,65.90
2019-04-10T21:34:15.765Z,64.77
2019-04-10T21:39:11.064Z,63.03
2019-04-10T21:44:06.967Z,66.83
2019-04-10T21:49:01.661Z,65.77
2019-04-10T21:53:56.307Z,67.60
2019-04-10T21:58:50.964Z,62.73
2019-04-10T22:03:45.647Z,62.97
2019-04-10T22:08:48.094Z,64.70
2019-04-10T22:13:42.838Z,62.10
2019-04-10T22:18:37.469Z,67.00
2019-04-10T22:23:32.227Z,67.93
2019-04-10T22:28:26.864Z,62.27
2019-04-10T22:33:22.256Z,67.70
2019-04-10T22:38:17.399Z,61.60
2019-04-10T22:43:12.282Z,64.67
2019-04-10T22:48:08.249Z,62.57
2019-04-10T22:53:03.115Z,63.07
2019-04-10T22:57:57.845Z,61.50
2019-04-10T23:02:52.829Z,63.83
2019-04-10T23:07:47.785Z,66.90
2019-04-10T23:12:52.218Z,64.87
2019-04-10T23:17:39.049Z,60.13
2019-04-10T23:22:33.719Z,63.00
2019-04-10T23:27:28.496Z,64.07
2019-04-10T23:32:23.544Z,61.97
2019-04-10T23:37:18.479Z,62.93
2019-04-10T23:42:13.105Z,59.30
2019-04-10T23:47:07.818Z,62.67
2019-04-10T23:52:03.325Z,65.00
2019-04-10T23:56:58.253Z,60.40
